sensor_id;sensor_type;location;lat;lon;timestamp;temperature;humidity
9237;DHT22;24579;42.810;23.214;2022-08-21T00:00:06;18.60;99.90
9237;DHT22;24579;42.810;23.214;2022-08-21T00:02:35;18.50;99.90
9237;DHT22;24579;42.810;23.214;2022-08-21T00:05:02;18.50;99.90
9237;DHT22;24579;42.810;23.214;2022-08-21T00:07:30;18.40;99.90
9237;DHT22;24579;42.810;23.214;2022-08-21T00:09:58;18.30;99.90
9237;DHT22;24579;42.810;23.214;2022-08-21T00:12:25;18.30;99.90
9237;DHT22;24579;42.810;23.214;2022-08-21T00:14:52;18.30;99.90
9237;DHT22;24579;42.810;23.214;2022-08-21T00:17:19;18.40;99.90
9237;DHT22;24579;42.810;23.214;2022-08-21T00:19:47;18.50;99.90
9237;DHT22;24579;42.810;23.214;2022-08-21T00:22:14;18.50;99.90
9237;DHT22;24579;42.810;23.214;2022-08-21T00:24:41;18.50;99.90
9237;DHT22;24579;42.810;23.214;2022-08-21T00:27:09;18.50;99.90
9237;DHT22;24579;42.810;23.214;2022-08-21T00:29:36;18.50;99.90
9237;DHT22;24579;42.810;23.214;2022-08-21T00:32:04;18.50;99.90
9237;DHT22;24579;42.810;23.214;2022-08-21T00:34:31;18.40;99.90
9237;DHT22;24579;42.810;23.214;2022-08-21T00:36:58;18.40;99.90
9237;DHT22;24579;42.810;23.214;2022-08-21T00:39:25;18.60;99.90
9237;DHT22;24579;42.810;23.214;2022-08-21T00:41:52;18.70;99.90
9237;DHT22;24579;42.810;23.214;2022-08-21T00:44:20;18.70;99.90
9237;DHT22;24579;42.810;23.214;2022-08-21T00:46:47;18.60;99.90
9237;DHT22;24579;42.810;23.214;2022-08-21T00:49:14;18.70;99.90
9237;DHT22;24579;42.810;23.214;2022-08-21T00:51:43;18.80;99.90
9237;DHT22;24579;42.810;23.214;2022-08-21T00:54:12;18.50;99.90
9237;DHT22;24579;42.810;23.214;2022-08-21T00:56:40;18.10;99.90
9237;DHT22;24579;42.810;23.214;2022-08-21T00:59:07;18.20;99.90
9237;DHT22;24579;42.810;23.214;2022-08-21T01:01:36;18.20;99.90
9237;DHT22;24579;42.810;23.214;2022-08-21T01:04:03;18.20;99.90
9237;DHT22;24579;42.810;23.214;2022-08-21T01:06:30;18.10;99.90
9237;DHT22;24579;42.810;23.214;2022-08-21T01:08:57;18.20;99.90
9237;DHT22;24579;42.810;23.214;2022-08-21T01:11:25;18.10;99.90
9237;DHT22;24579;42.810;23.214;2022-08-21T01:13:52;18.00;99.90
9237;DHT22;24579;42.810;23.214;2022-08-21T01:16:21;18.10;99.90
9237;DHT22;24579;42.810;23.214;2022-08-21T01:18:50;18.00;99.90
9237;DHT22;24579;42.810;23.214;2022-08-21T01:21:21;17.90;99.90
9237;DHT22;24579;42.810;23.214;2022-08-21T01:23:51;18.10;99.90
9237;DHT22;24579;42.810;23.214;2022-08-21T01:26:21;18.20;99.90
9237;DHT22;24579;42.810;23.214;2022-08-21T01:28:51;18.30;99.90
9237;DHT22;24579;42.810;23.214;2022-08-21T01:31:19;18.00;99.90
9237;DHT22;24579;42.810;23.214;2022-08-21T01:33:48;18.00;99.90
9237;DHT22;24579;42.810;23.214;2022-08-21T01:36:15;17.70;99.90
9237;DHT22;24579;42.810;23.214;2022-08-21T01:38:43;17.90;99.90
9237;DHT22;24579;42.810;23.214;2022-08-21T01:41:10;17.80;99.90
9237;DHT22;24579;42.810;23.214;2022-08-21T01:43:37;17.80;99.90
9237;DHT22;24579;42.810;23.214;2022-08-21T01:46:04;18.00;99.90
9237;DHT22;24579;42.810;23.214;2022-08-21T01:48:32;17.90;99.90
9237;DHT22;24579;42.810;23.214;2022-08-21T01:50:59;17.60;99.90
9237;DHT22;24579;42.810;23.214;2022-08-21T01:53:26;17.80;99.90
9237;DHT22;24579;42.810;23.214;2022-08-21T01:55:54;17.90;99.90
9237;DHT22;24579;42.810;23.214;2022-08-21T01:58:21;18.00;99.90
9237;DHT22;24579;42.810;23.214;2022-08-21T02:00:48;18.00;99.90
9237;DHT22;24579;42.810;23.214;2022-08-21T02:03:16;17.90;99.90
9237;DHT22;24579;42.810;23.214;2022-08-21T02:05:43;17.70;99.90
9237;DHT22;24579;42.810;23.214;2022-08-21T02:08:09;17.80;99.90
9237;DHT22;24579;42.810;23.214;2022-08-21T02:10:36;17.70;99.90
9237;DHT22;24579;42.810;23.214;2022-08-21T02:13:05;17.70;99.90
9237;DHT22;24579;42.810;23.214;2022-08-21T02:15:32;17.60;99.90
9237;DHT22;24579;42.810;23.214;2022-08-21T02:18:01;17.70;99.90
9237;DHT22;24579;42.810;23.214;2022-08-21T02:20:31;17.70;99.90
9237;DHT22;24579;42.810;23.214;2022-08-21T02:22:59;17.80;99.90
9237;DHT22;24579;42.810;23.214;2022-08-21T02:25:27;17.90;99.90
9237;DHT22;24579;42.810;23.214;2022-08-21T02:27:54;18.00;99.90
9237;DHT22;24579;42.810;23.214;2022-08-21T02:30:24;18.00;99.90
9237;DHT22;24579;42.810;23.214;2022-08-21T02:32:52;18.10;99.90
9237;DHT22;24579;42.810;23.214;2022-08-21T02:35:19;18.10;99.90
9237;DHT22;24579;42.810;23.214;2022-08-21T02:37:51;18.10;99.90
9237;DHT22;24579;42.810;23.214;2022-08-21T02:40:20;18.10;99.90
9237;DHT22;24579;42.810;23.214;2022-08-21T02:42:48;18.10;99.90
9237;DHT22;24579;42.810;23.214;2022-08-21T02:45:15;18.00;99.90
9237;DHT22;24579;42.810;23.214;2022-08-21T02:47:49;18.00;99.90
9237;DHT22;24579;42.810;23.214;2022-08-21T02:50:18;18.00;99.90
9237;DHT22;24579;42.810;23.214;2022-08-21T02:52:47;17.90;99.90
9237;DHT22;24579;42.810;23.214;2022-08-21T02:55:15;17.80;99.90
9237;DHT22;24579;42.810;23.214;2022-08-21T02:57:42;17.80;99.90
9237;DHT22;24579;42.810;23.214;2022-08-21T03:00:09;17.80;99.90
9237;DHT22;24579;42.810;23.214;2022-08-21T03:02:37;17.70;99.90
9237;DHT22;24579;42.810;23.214;2022-08-21T03:05:07;17.80;99.90
9237;DHT22;24579;42.810;23.214;2022-08-21T03:07:35;17.80;99.90
9237;DHT22;24579;42.810;23.214;2022-08-21T03:10:03;17.80;99.90
9237;DHT22;24579;42.810;23.214;2022-08-21T03:12:30;17.80;99.90
9237;DHT22;24579;42.810;23.214;2022-08-21T03:14:57;17.70;99.90
9237;DHT22;24579;42.810;23.214;2022-08-21T03:17:24;17.70;99.90
9237;DHT22;24579;42.810;23.214;2022-08-21T03:19:51;17.70;99.90
9237;DHT22;24579;42.810;23.214;2022-08-21T03:22:19;17.60;99.90
9237;DHT22;24579;42.810;23.214;2022-08-21T03:24:46;17.70;99.90
9237;DHT22;24579;42.810;23.214;2022-08-21T03:27:13;17.70;99.90
9237;DHT22;24579;42.810;23.214;2022-08-21T03:29:41;17.70;99.90
9237;DHT22;24579;42.810;23.214;2022-08-21T03:32:07;17.70;99.90
9237;DHT22;24579;42.810;23.214;2022-08-21T03:34:35;17.70;99.90
9237;DHT22;24579;42.810;23.214;2022-08-21T03:37:02;17.60;99.90
9237;DHT22;24579;42.810;23.214;2022-08-21T03:39:31;17.60;99.90
9237;DHT22;24579;42.810;23.214;2022-08-21T03:41:58;17.60;99.90
9237;DHT22;24579;42.810;23.214;2022-08-21T03:44:25;17.70;99.90
9237;DHT22;24579;42.810;23.214;2022-08-21T03:46:54;17.70;99.90
9237;DHT22;24579;42.810;23.214;2022-08-21T03:49:21;17.70;99.90
9237;DHT22;24579;42.810;23.214;2022-08-21T03:51:48;17.70;99.90
9237;DHT22;24579;42.810;23.214;2022-08-21T03:54:15;17.70;99.90
9237;DHT22;24579;42.810;23.214;2022-08-21T03:56:44;17.70;99.90
9237;DHT22;24579;42.810;23.214;2022-08-21T03:59:11;17.70;99.90
9237;DHT22;24579;42.810;23.214;2022-08-21T04:01:38;17.70;99.90
9237;DHT22;24579;42.810;23.214;2022-08-21T04:04:06;17.60;99.90
9237;DHT22;24579;42.810;23.214;2022-08-21T04:06:33;17.60;99.90
9237;DHT22;24579;42.810;23.214;2022-08-21T04:09:00;17.60;99.90
9237;DHT22;24579;42.810;23.214;2022-08-21T04:11:27;17.60;99.90
9237;DHT22;24579;42.810;23.214;2022-08-21T04:13:55;17.50;99.90
9237;DHT22;24579;42.810;23.214;2022-08-21T04:16:22;17.50;99.90
9237;DHT22;24579;42.810;23.214;2022-08-21T04:18:49;17.50;99.90
9237;DHT22;24579;42.810;23.214;2022-08-21T04:21:16;17.50;99.90
9237;DHT22;24579;42.810;23.214;2022-08-21T04:23:43;17.50;99.90
9237;DHT22;24579;42.810;23.214;2022-08-21T04:26:10;17.50;99.90
9237;DHT22;24579;42.810;23.214;2022-08-21T04:28:37;17.40;99.90
9237;DHT22;24579;42.810;23.214;2022-08-21T04:31:06;17.40;99.90
9237;DHT22;24579;42.810;23.214;2022-08-21T04:33:33;17.50;99.90
9237;DHT22;24579;42.810;23.214;2022-08-21T04:36:00;17.50;99.90
9237;DHT22;24579;42.810;23.214;2022-08-21T04:38:28;17.60;99.90
9237;DHT22;24579;42.810;23.214;2022-08-21T04:40:57;17.70;99.90
9237;DHT22;24579;42.810;23.214;2022-08-21T04:43:24;17.80;99.90
9237;DHT22;24579;42.810;23.214;2022-08-21T04:45:52;17.80;99.90
9237;DHT22;24579;42.810;23.214;2022-08-21T04:48:22;18.00;99.90
9237;DHT22;24579;42.810;23.214;2022-08-21T04:50:53;18.10;99.90
9237;DHT22;24579;42.810;23.214;2022-08-21T04:53:24;18.20;99.90
9237;DHT22;24579;42.810;23.214;2022-08-21T04:55:54;18.20;99.90
9237;DHT22;24579;42.810;23.214;2022-08-21T04:58:24;18.30;99.90
9237;DHT22;24579;42.810;23.214;2022-08-21T05:00:54;18.40;99.90
9237;DHT22;24579;42.810;23.214;2022-08-21T05:03:24;18.50;99.90
9237;DHT22;24579;42.810;23.214;2022-08-21T05:05:51;18.60;99.90
9237;DHT22;24579;42.810;23.214;2022-08-21T05:08:21;18.50;99.90
9237;DHT22;24579;42.810;23.214;2022-08-21T05:10:50;18.60;99.90
9237;DHT22;24579;42.810;23.214;2022-08-21T05:13:18;18.60;99.90
9237;DHT22;24579;42.810;23.214;2022-08-21T05:15:45;18.20;99.90
9237;DHT22;24579;42.810;23.214;2022-08-21T05:18:12;17.90;99.90
9237;DHT22;24579;42.810;23.214;2022-08-21T05:20:41;18.00;99.90
9237;DHT22;24579;42.810;23.214;2022-08-21T05:23:11;18.00;99.90
9237;DHT22;24579;42.810;23.214;2022-08-21T05:25:39;18.20;99.90
9237;DHT22;24579;42.810;23.214;2022-08-21T05:28:06;18.20;99.90
9237;DHT22;24579;42.810;23.214;2022-08-21T05:30:33;18.30;99.90
9237;DHT22;24579;42.810;23.214;2022-08-21T05:33:02;18.20;99.90
9237;DHT22;24579;42.810;23.214;2022-08-21T05:35:30;18.30;99.90
9237;DHT22;24579;42.810;23.214;2022-08-21T05:37:59;18.20;99.90
9237;DHT22;24579;42.810;23.214;2022-08-21T05:40:27;18.20;99.90
9237;DHT22;24579;42.810;23.214;2022-08-21T05:42:55;18.20;99.90
9237;DHT22;24579;42.810;23.214;2022-08-21T05:45:23;18.10;99.90
9237;DHT22;24579;42.810;23.214;2022-08-21T05:47:50;18.10;99.90
9237;DHT22;24579;42.810;23.214;2022-08-21T05:50:17;18.30;99.90
9237;DHT22;24579;42.810;23.214;2022-08-21T05:52:44;18.20;99.90
9237;DHT22;24579;42.810;23.214;2022-08-21T05:55:12;18.10;99.90
9237;DHT22;24579;42.810;23.214;2022-08-21T05:57:40;17.90;99.90
9237;DHT22;24579;42.810;23.214;2022-08-21T06:00:08;18.00;99.90
9237;DHT22;24579;42.810;23.214;2022-08-21T06:02:38;18.10;99.90
9237;DHT22;24579;42.810;23.214;2022-08-21T06:05:05;18.30;99.90
9237;DHT22;24579;42.810;23.214;2022-08-21T06:07:32;18.20;99.90
9237;DHT22;24579;42.810;23.214;2022-08-21T06:09:59;18.30;99.90
9237;DHT22;24579;42.810;23.214;2022-08-21T06:12:28;18.30;99.90
9237;DHT22;24579;42.810;23.214;2022-08-21T06:14:55;18.40;99.90
9237;DHT22;24579;42.810;23.214;2022-08-21T06:17:22;18.50;99.90
9237;DHT22;24579;42.810;23.214;2022-08-21T06:19:51;18.60;99.90
9237;DHT22;24579;42.810;23.214;2022-08-21T06:22:18;18.70;99.90
9237;DHT22;24579;42.810;23.214;2022-08-21T06:24:45;18.60;99.90
9237;DHT22;24579;42.810;23.214;2022-08-21T06:27:12;18.70;99.90
9237;DHT22;24579;42.810;23.214;2022-08-21T06:29:42;19.00;99.90
9237;DHT22;24579;42.810;23.214;2022-08-21T06:32:11;19.10;99.90
9237;DHT22;24579;42.810;23.214;2022-08-21T06:34:39;19.00;99.90
9237;DHT22;24579;42.810;23.214;2022-08-21T06:37:07;19.40;99.90
9237;DHT22;24579;42.810;23.214;2022-08-21T06:39:35;19.70;99.90
9237;DHT22;24579;42.810;23.214;2022-08-21T06:42:02;19.90;99.90
9237;DHT22;24579;42.810;23.214;2022-08-21T06:44:29;19.90;99.90
9237;DHT22;24579;42.810;23.214;2022-08-21T06:46:58;19.80;99.90
9237;DHT22;24579;42.810;23.214;2022-08-21T06:49:25;19.80;99.90
9237;DHT22;24579;42.810;23.214;2022-08-21T06:51:52;19.80;99.90
9237;DHT22;24579;42.810;23.214;2022-08-21T06:54:19;20.10;99.90
9237;DHT22;24579;42.810;23.214;2022-08-21T06:56:46;20.10;99.90
9237;DHT22;24579;42.810;23.214;2022-08-21T06:59:13;20.30;99.90
9237;DHT22;24579;42.810;23.214;2022-08-21T07:01:41;20.40;99.90
9237;DHT22;24579;42.810;23.214;2022-08-21T07:04:09;20.20;99.90
9237;DHT22;24579;42.810;23.214;2022-08-21T07:06:36;20.50;99.90
9237;DHT22;24579;42.810;23.214;2022-08-21T07:09:04;20.60;99.90
9237;DHT22;24579;42.810;23.214;2022-08-21T07:11:31;21.30;99.90
9237;DHT22;24579;42.810;23.214;2022-08-21T07:13:58;21.50;99.90
9237;DHT22;24579;42.810;23.214;2022-08-21T07:16:25;21.90;99.90
9237;DHT22;24579;42.810;23.214;2022-08-21T07:18:52;22.00;99.90
9237;DHT22;24579;42.810;23.214;2022-08-21T07:21:21;22.40;99.90
9237;DHT22;24579;42.810;23.214;2022-08-21T07:23:50;22.40;99.90
9237;DHT22;24579;42.810;23.214;2022-08-21T07:26:20;22.60;99.90
9237;DHT22;24579;42.810;23.214;2022-08-21T07:28:48;23.30;99.90
9237;DHT22;24579;42.810;23.214;2022-08-21T07:31:17;23.70;99.90
9237;DHT22;24579;42.810;23.214;2022-08-21T07:33:45;23.30;99.90
9237;DHT22;24579;42.810;23.214;2022-08-21T07:36:12;23.70;99.90
9237;DHT22;24579;42.810;23.214;2022-08-21T07:38:41;23.80;99.90
9237;DHT22;24579;42.810;23.214;2022-08-21T07:41:14;23.70;99.90
9237;DHT22;24579;42.810;23.214;2022-08-21T07:43:41;24.10;99.90
9237;DHT22;24579;42.810;23.214;2022-08-21T07:46:08;24.00;99.90
9237;DHT22;24579;42.810;23.214;2022-08-21T07:48:36;23.60;99.90
9237;DHT22;24579;42.810;23.214;2022-08-21T07:51:09;23.10;99.90
9237;DHT22;24579;42.810;23.214;2022-08-21T07:53:37;22.60;99.90
9237;DHT22;24579;42.810;23.214;2022-08-21T07:56:06;22.20;99.90
9237;DHT22;24579;42.810;23.214;2022-08-21T07:58:36;22.00;99.90
9237;DHT22;24579;42.810;23.214;2022-08-21T08:01:04;22.00;99.90
9237;DHT22;24579;42.810;23.214;2022-08-21T08:03:31;22.50;99.90
9237;DHT22;24579;42.810;23.214;2022-08-21T08:05:58;23.10;99.90
9237;DHT22;24579;42.810;23.214;2022-08-21T08:08:25;23.10;99.90
9237;DHT22;24579;42.810;23.214;2022-08-21T08:10:53;23.60;99.90
9237;DHT22;24579;42.810;23.214;2022-08-21T08:13:24;23.60;99.90
9237;DHT22;24579;42.810;23.214;2022-08-21T08:15:51;24.00;99.90
9237;DHT22;24579;42.810;23.214;2022-08-21T08:18:19;24.40;99.90
9237;DHT22;24579;42.810;23.214;2022-08-21T08:20:46;24.70;99.90
9237;DHT22;24579;42.810;23.214;2022-08-21T08:23:13;24.90;99.90
9237;DHT22;24579;42.810;23.214;2022-08-21T08:25:41;25.10;99.90
9237;DHT22;24579;42.810;23.214;2022-08-21T08:28:08;25.30;99.90
9237;DHT22;24579;42.810;23.214;2022-08-21T08:30:36;25.50;99.90
9237;DHT22;24579;42.810;23.214;2022-08-21T08:33:03;26.10;99.90
9237;DHT22;24579;42.810;23.214;2022-08-21T08:35:30;26.30;99.20
9237;DHT22;24579;42.810;23.214;2022-08-21T08:37:58;26.00;99.00
9237;DHT22;24579;42.810;23.214;2022-08-21T08:40:31;26.00;97.70
9237;DHT22;24579;42.810;23.214;2022-08-21T08:42:59;26.10;98.20
9237;DHT22;24579;42.810;23.214;2022-08-21T08:45:28;26.10;97.10
9237;DHT22;24579;42.810;23.214;2022-08-21T08:48:00;25.60;95.50
9237;DHT22;24579;42.810;23.214;2022-08-21T08:53:28;25.70;96.40
9237;DHT22;24579;42.810;23.214;2022-08-21T08:55:57;26.00;95.50
9237;DHT22;24579;42.810;23.214;2022-08-21T08:58:29;25.80;96.30
9237;DHT22;24579;42.810;23.214;2022-08-21T09:00:58;25.00;98.60
9237;DHT22;24579;42.810;23.214;2022-08-21T09:03:27;25.00;97.90
9237;DHT22;24579;42.810;23.214;2022-08-21T09:06:01;25.10;98.50
9237;DHT22;24579;42.810;23.214;2022-08-21T09:08:43;25.20;97.00
9237;DHT22;24579;42.810;23.214;2022-08-21T09:11:22;25.70;96.90
9237;DHT22;24579;42.810;23.214;2022-08-21T09:14:01;26.50;95.00
9237;DHT22;24579;42.810;23.214;2022-08-21T09:16:42;26.50;92.80
9237;DHT22;24579;42.810;23.214;2022-08-21T09:19:30;26.50;93.70
9237;DHT22;24579;42.810;23.214;2022-08-21T09:22:06;27.00;93.20
9237;DHT22;24579;42.810;23.214;2022-08-21T09:24:42;26.80;92.70
9237;DHT22;24579;42.810;23.214;2022-08-21T09:27:12;26.50;93.90
9237;DHT22;24579;42.810;23.214;2022-08-21T09:29:42;27.60;93.40
9237;DHT22;24579;42.810;23.214;2022-08-21T09:32:17;27.80;93.20
9237;DHT22;24579;42.810;23.214;2022-08-21T09:34:58;28.10;90.30
9237;DHT22;24579;42.810;23.214;2022-08-21T09:37:27;28.50;87.40
9237;DHT22;24579;42.810;23.214;2022-08-21T09:39:55;28.80;84.80
9237;DHT22;24579;42.810;23.214;2022-08-21T09:42:26;28.90;85.90
9237;DHT22;24579;42.810;23.214;2022-08-21T09:45:08;29.30;84.00
9237;DHT22;24579;42.810;23.214;2022-08-21T09:47:36;29.60;83.50
9237;DHT22;24579;42.810;23.214;2022-08-21T09:50:13;29.90;80.60
9237;DHT22;24579;42.810;23.214;2022-08-21T09:52:46;30.10;79.70
9237;DHT22;24579;42.810;23.214;2022-08-21T09:55:18;30.50;78.70
9237;DHT22;24579;42.810;23.214;2022-08-21T09:58:00;30.10;78.20
9237;DHT22;24579;42.810;23.214;2022-08-21T10:00:30;30.10;74.00
9237;DHT22;24579;42.810;23.214;2022-08-21T10:03:14;29.60;74.20
9237;DHT22;24579;42.810;23.214;2022-08-21T10:05:53;28.20;82.00
9237;DHT22;24579;42.810;23.214;2022-08-21T10:08:22;28.20;84.30
9237;DHT22;24579;42.810;23.214;2022-08-21T10:10:53;28.30;82.30
9237;DHT22;24579;42.810;23.214;2022-08-21T10:13:26;28.90;82.60
9237;DHT22;24579;42.810;23.214;2022-08-21T10:16:07;28.60;79.90
9237;DHT22;24579;42.810;23.214;2022-08-21T10:18:40;28.50;80.10
9237;DHT22;24579;42.810;23.214;2022-08-21T10:21:17;27.90;83.80
9237;DHT22;24579;42.810;23.214;2022-08-21T10:23:58;28.20;85.80
9237;DHT22;24579;42.810;23.214;2022-08-21T10:26:39;28.60;81.70
9237;DHT22;24579;42.810;23.214;2022-08-21T10:29:18;29.70;79.20
9237;DHT22;24579;42.810;23.214;2022-08-21T10:31:54;30.50;77.50
9237;DHT22;24579;42.810;23.214;2022-08-21T10:34:42;31.40;73.00
9237;DHT22;24579;42.810;23.214;2022-08-21T10:37:23;31.30;71.50
9237;DHT22;24579;42.810;23.214;2022-08-21T10:40:00;31.50;72.00
9237;DHT22;24579;42.810;23.214;2022-08-21T10:42:34;30.30;69.70
9237;DHT22;24579;42.810;23.214;2022-08-21T10:45:14;29.50;76.10
9237;DHT22;24579;42.810;23.214;2022-08-21T10:47:47;28.90;78.20
9237;DHT22;24579;42.810;23.214;2022-08-21T10:50:23;28.90;78.00
9237;DHT22;24579;42.810;23.214;2022-08-21T10:53:13;29.10;76.90
9237;DHT22;24579;42.810;23.214;2022-08-21T10:55:46;29.60;77.40
9237;DHT22;24579;42.810;23.214;2022-08-21T10:58:19;29.50;77.00
9237;DHT22;24579;42.810;23.214;2022-08-21T11:00:50;29.00;77.90
9237;DHT22;24579;42.810;23.214;2022-08-21T11:03:23;29.40;78.90
9237;DHT22;24579;42.810;23.214;2022-08-21T11:05:53;30.30;75.70
9237;DHT22;24579;42.810;23.214;2022-08-21T11:08:28;31.00;71.90
9237;DHT22;24579;42.810;23.214;2022-08-21T11:10:59;30.70;73.20
9237;DHT22;24579;42.810;23.214;2022-08-21T11:13:36;30.10;73.70
9237;DHT22;24579;42.810;23.214;2022-08-21T11:16:10;29.60;74.40
9237;DHT22;24579;42.810;23.214;2022-08-21T11:18:42;29.40;76.40
9237;DHT22;24579;42.810;23.214;2022-08-21T11:21:26;29.10;77.90
9237;DHT22;24579;42.810;23.214;2022-08-21T11:24:02;29.10;76.60
9237;DHT22;24579;42.810;23.214;2022-08-21T11:26:34;29.70;76.00
9237;DHT22;24579;42.810;23.214;2022-08-21T11:29:09;30.00;73.00
9237;DHT22;24579;42.810;23.214;2022-08-21T11:31:49;30.60;75.00
9237;DHT22;24579;42.810;23.214;2022-08-21T11:34:28;31.20;76.40
9237;DHT22;24579;42.810;23.214;2022-08-21T11:37:04;31.90;71.00
9237;DHT22;24579;42.810;23.214;2022-08-21T11:39:41;31.90;66.10
9237;DHT22;24579;42.810;23.214;2022-08-21T11:42:19;30.90;66.20
9237;DHT22;24579;42.810;23.214;2022-08-21T11:44:58;29.80;68.90
9237;DHT22;24579;42.810;23.214;2022-08-21T11:47:36;30.50;69.60
9237;DHT22;24579;42.810;23.214;2022-08-21T11:50:15;30.10;69.40
9237;DHT22;24579;42.810;23.214;2022-08-21T11:52:47;29.40;71.60
9237;DHT22;24579;42.810;23.214;2022-08-21T11:55:19;29.10;73.30
9237;DHT22;24579;42.810;23.214;2022-08-21T11:57:53;28.90;73.90
9237;DHT22;24579;42.810;23.214;2022-08-21T12:00:24;29.20;74.70
9237;DHT22;24579;42.810;23.214;2022-08-21T12:02:54;29.50;74.30
9237;DHT22;24579;42.810;23.214;2022-08-21T12:05:26;30.40;72.60
9237;DHT22;24579;42.810;23.214;2022-08-21T12:08:04;31.00;71.60
9237;DHT22;24579;42.810;23.214;2022-08-21T12:10:35;31.10;70.30
9237;DHT22;24579;42.810;23.214;2022-08-21T12:13:11;30.80;70.80
9237;DHT22;24579;42.810;23.214;2022-08-21T12:15:48;30.90;71.50
9237;DHT22;24579;42.810;23.214;2022-08-21T12:18:22;31.10;69.40
9237;DHT22;24579;42.810;23.214;2022-08-21T12:21:05;30.60;70.70
9237;DHT22;24579;42.810;23.214;2022-08-21T12:23:45;30.40;70.40
9237;DHT22;24579;42.810;23.214;2022-08-21T12:26:24;29.80;71.20
9237;DHT22;24579;42.810;23.214;2022-08-21T12:29:14;29.20;71.70
9237;DHT22;24579;42.810;23.214;2022-08-21T12:31:51;28.80;71.60
9237;DHT22;24579;42.810;23.214;2022-08-21T12:34:20;29.00;74.60
9237;DHT22;24579;42.810;23.214;2022-08-21T12:36:54;28.80;74.60
9237;DHT22;24579;42.810;23.214;2022-08-21T12:39:25;29.00;74.70
9237;DHT22;24579;42.810;23.214;2022-08-21T12:41:58;29.00;75.10
9237;DHT22;24579;42.810;23.214;2022-08-21T12:44:32;29.20;74.70
9237;DHT22;24579;42.810;23.214;2022-08-21T12:47:04;28.90;73.50
9237;DHT22;24579;42.810;23.214;2022-08-21T12:49:35;28.50;75.50
9237;DHT22;24579;42.810;23.214;2022-08-21T12:52:09;28.30;76.10
9237;DHT22;24579;42.810;23.214;2022-08-21T12:54:40;28.10;75.60
9237;DHT22;24579;42.810;23.214;2022-08-21T12:57:18;27.90;76.60
9237;DHT22;24579;42.810;23.214;2022-08-21T12:59:45;27.70;77.30
9237;DHT22;24579;42.810;23.214;2022-08-21T13:02:17;27.70;78.80
9237;DHT22;24579;42.810;23.214;2022-08-21T13:04:46;28.10;79.50
9237;DHT22;24579;42.810;23.214;2022-08-21T13:07:19;27.90;78.20
9237;DHT22;24579;42.810;23.214;2022-08-21T13:09:52;27.70;78.10
9237;DHT22;24579;42.810;23.214;2022-08-21T13:12:22;27.60;78.80
9237;DHT22;24579;42.810;23.214;2022-08-21T13:14:51;27.60;79.30
9237;DHT22;24579;42.810;23.214;2022-08-21T13:17:24;27.50;79.50
9237;DHT22;24579;42.810;23.214;2022-08-21T13:19:56;27.40;79.50
9237;DHT22;24579;42.810;23.214;2022-08-21T13:22:25;27.30;80.20
9237;DHT22;24579;42.810;23.214;2022-08-21T13:24:52;27.10;79.40
9237;DHT22;24579;42.810;23.214;2022-08-21T13:27:27;27.10;81.00
9237;DHT22;24579;42.810;23.214;2022-08-21T13:30:05;27.30;80.90
9237;DHT22;24579;42.810;23.214;2022-08-21T13:32:35;27.20;81.50
9237;DHT22;24579;42.810;23.214;2022-08-21T13:35:13;27.20;83.20
9237;DHT22;24579;42.810;23.214;2022-08-21T13:37:41;26.90;82.30
9237;DHT22;24579;42.810;23.214;2022-08-21T13:40:15;26.80;83.20
9237;DHT22;24579;42.810;23.214;2022-08-21T13:42:46;26.60;84.90
9237;DHT22;24579;42.810;23.214;2022-08-21T13:45:22;26.60;84.70
9237;DHT22;24579;42.810;23.214;2022-08-21T13:47:50;26.60;84.70
9237;DHT22;24579;42.810;23.214;2022-08-21T13:50:21;26.60;84.80
9237;DHT22;24579;42.810;23.214;2022-08-21T13:52:55;26.60;85.20
9237;DHT22;24579;42.810;23.214;2022-08-21T13:55:23;26.50;85.80
9237;DHT22;24579;42.810;23.214;2022-08-21T13:58:00;26.30;85.80
9237;DHT22;24579;42.810;23.214;2022-08-21T14:00:29;26.20;86.70
9237;DHT22;24579;42.810;23.214;2022-08-21T14:03:04;26.20;87.60
9237;DHT22;24579;42.810;23.214;2022-08-21T14:05:33;26.30;87.90
9237;DHT22;24579;42.810;23.214;2022-08-21T14:08:06;26.20;87.20
9237;DHT22;24579;42.810;23.214;2022-08-21T14:10:37;26.20;87.90
9237;DHT22;24579;42.810;23.214;2022-08-21T14:13:34;26.10;86.70
9237;DHT22;24579;42.810;23.214;2022-08-21T14:16:10;26.00;87.10
9237;DHT22;24579;42.810;23.214;2022-08-21T14:18:44;26.00;87.20
9237;DHT22;24579;42.810;23.214;2022-08-21T14:21:11;26.00;87.50
9237;DHT22;24579;42.810;23.214;2022-08-21T14:23:39;26.10;87.00
9237;DHT22;24579;42.810;23.214;2022-08-21T14:26:07;26.10;86.60
9237;DHT22;24579;42.810;23.214;2022-08-21T14:28:39;26.30;86.60
9237;DHT22;24579;42.810;23.214;2022-08-21T14:31:15;26.40;87.60
9237;DHT22;24579;42.810;23.214;2022-08-21T14:33:43;26.30;86.90
9237;DHT22;24579;42.810;23.214;2022-08-21T14:36:10;26.20;87.90
9237;DHT22;24579;42.810;23.214;2022-08-21T14:38:40;26.20;88.80
9237;DHT22;24579;42.810;23.214;2022-08-21T14:41:14;26.20;89.60
9237;DHT22;24579;42.810;23.214;2022-08-21T14:43:44;26.20;90.30
9237;DHT22;24579;42.810;23.214;2022-08-21T14:46:13;26.10;90.20
9237;DHT22;24579;42.810;23.214;2022-08-21T14:48:44;26.00;88.40
9237;DHT22;24579;42.810;23.214;2022-08-21T14:51:12;25.90;88.60
9237;DHT22;24579;42.810;23.214;2022-08-21T14:53:39;25.80;90.00
9237;DHT22;24579;42.810;23.214;2022-08-21T14:56:06;25.70;90.60
9237;DHT22;24579;42.810;23.214;2022-08-21T14:58:36;25.80;90.50
9237;DHT22;24579;42.810;23.214;2022-08-21T15:01:06;25.80;90.00
9237;DHT22;24579;42.810;23.214;2022-08-21T15:03:34;25.90;90.70
9237;DHT22;24579;42.810;23.214;2022-08-21T15:06:01;26.00;89.80
9237;DHT22;24579;42.810;23.214;2022-08-21T15:08:28;26.10;90.30
9237;DHT22;24579;42.810;23.214;2022-08-21T15:10:56;26.20;89.70
9237;DHT22;24579;42.810;23.214;2022-08-21T15:13:23;26.30;89.20
9237;DHT22;24579;42.810;23.214;2022-08-21T15:15:51;26.50;89.00
9237;DHT22;24579;42.810;23.214;2022-08-21T15:18:20;26.60;89.30
9237;DHT22;24579;42.810;23.214;2022-08-21T15:20:47;26.70;89.40
9237;DHT22;24579;42.810;23.214;2022-08-21T15:23:14;26.60;88.50
9237;DHT22;24579;42.810;23.214;2022-08-21T15:25:42;26.60;88.50
9237;DHT22;24579;42.810;23.214;2022-08-21T15:28:10;26.60;88.80
9237;DHT22;24579;42.810;23.214;2022-08-21T15:30:39;26.60;88.50
9237;DHT22;24579;42.810;23.214;2022-08-21T15:33:07;26.60;89.20
9237;DHT22;24579;42.810;23.214;2022-08-21T15:35:35;26.60;88.90
9237;DHT22;24579;42.810;23.214;2022-08-21T15:38:02;26.60;89.30
9237;DHT22;24579;42.810;23.214;2022-08-21T15:40:30;26.30;89.00
9237;DHT22;24579;42.810;23.214;2022-08-21T15:43:00;26.10;90.20
9237;DHT22;24579;42.810;23.214;2022-08-21T15:45:28;25.90;90.60
9237;DHT22;24579;42.810;23.214;2022-08-21T15:47:55;25.90;90.80
9237;DHT22;24579;42.810;23.214;2022-08-21T15:50:23;25.90;91.30